Time;durP1;ratioP1;P1;durP2;ratioP2;P2;SDS_P1;SDS_P2;PMS_P1;PMS_P2;Temp;Humidity;BMP_temperature;BMP_pressure;BME280_temperature;BME280_humidity;BME280_pressure;Samples;Min_cycle;Max_cycle;Signal;HPM_P1;HPM_P2
2021/05/08 00:01:07;;;;;;;9.30;7.67;;;4.20;99.90;;;;;;5031619;28;20316;-79
2021/05/08 00:03:33;;;;;;;11.90;8.33;;;4.10;99.90;;;;;;5031188;28;20214;-78
2021/05/08 00:06:00;;;;;;;10.40;8.50;;;4.00;99.90;;;;;;5030749;28;20556;-78
2021/05/08 00:08:26;;;;;;;10.70;8.53;;;4.00;99.90;;;;;;5031132;28;20202;-77
2021/05/08 00:10:52;;;;;;;10.83;8.60;;;4.00;99.90;;;;;;5048925;28;20550;-78
2021/05/08 00:13:18;;;;;;;11.60;8.20;;;4.00;99.90;;;;;;5040086;28;20224;-78
2021/05/08 00:15:44;;;;;;;10.33;8.40;;;4.00;99.90;;;;;;5039622;28;20177;-78
2021/05/08 00:18:09;;;;;;;10.27;8.70;;;4.00;99.90;;;;;;5043330;28;20193;-79
2021/05/08 00:20:35;;;;;;;9.60;8.23;;;4.00;99.90;;;;;;5039344;28;20178;-79
2021/05/08 00:23:01;;;;;;;10.37;8.07;;;3.90;99.90;;;;;;5052563;28;20204;-78
2021/05/08 00:25:26;;;;;;;10.13;8.40;;;3.90;99.90;;;;;;5052994;28;20565;-78
2021/05/08 00:27:52;;;;;;;11.40;9.00;;;3.80;99.90;;;;;;5052623;28;20206;-78
2021/05/08 00:30:18;;;;;;;10.50;8.83;;;3.80;99.90;;;;;;5052534;28;20642;-77
2021/05/08 00:32:44;;;;;;;9.40;8.03;;;3.80;99.90;;;;;;5035980;28;20207;-78
2021/05/08 00:35:10;;;;;;;12.70;8.63;;;3.70;99.90;;;;;;5035518;28;20202;-77
2021/05/08 00:37:35;;;;;;;9.17;8.23;;;3.70;99.90;;;;;;5035335;28;20179;-78
2021/05/08 00:40:01;;;;;;;10.27;8.67;;;3.70;99.90;;;;;;5035601;28;20219;-78
2021/05/08 00:42:27;;;;;;;11.10;8.73;;;3.70;99.90;;;;;;5035203;28;20211;-78
2021/05/08 00:44:53;;;;;;;10.67;8.80;;;3.70;99.90;;;;;;5035821;28;20186;-78
2021/05/08 00:47:19;;;;;;;10.17;8.83;;;3.60;99.90;;;;;;5034937;28;20194;-77
2021/05/08 00:49:45;;;;;;;10.40;9.00;;;3.70;99.90;;;;;;5035078;28;20667;-78
2021/05/08 00:52:13;;;;;;;10.13;8.40;;;3.70;99.90;;;;;;5035230;28;20649;-78
2021/05/08 00:54:39;;;;;;;12.10;8.77;;;3.70;99.90;;;;;;5051545;28;20195;-78
2021/05/08 00:57:05;;;;;;;10.20;8.63;;;3.50;99.90;;;;;;5051464;28;20181;-77
2021/05/08 00:59:31;;;;;;;11.50;9.23;;;3.50;99.90;;;;;;5052399;28;20183;-78
2021/05/08 01:01:56;;;;;;;12.67;9.50;;;3.50;99.90;;;;;;5035083;28;20189;-78
2021/05/08 01:04:22;;;;;;;14.40;9.07;;;3.40;99.90;;;;;;5034751;28;20223;-78
2021/05/08 01:06:49;;;;;;;12.27;9.40;;;3.40;99.90;;;;;;5035058;28;20188;-78
2021/05/08 01:09:15;;;;;;;11.53;9.27;;;3.40;99.90;;;;;;5036182;28;20543;-78
2021/05/08 01:11:41;;;;;;;10.23;9.07;;;3.40;99.90;;;;;;5035817;28;20215;-79
2021/05/08 01:14:08;;;;;;;12.47;9.60;;;3.40;99.90;;;;;;5052965;28;20203;-78
2021/05/08 01:16:34;;;;;;;11.87;9.57;;;3.40;99.90;;;;;;5036558;28;20190;-79
2021/05/08 01:19:00;;;;;;;11.00;9.03;;;3.40;99.90;;;;;;5036645;28;20653;-79
2021/05/08 01:21:26;;;;;;;11.43;9.20;;;3.30;99.90;;;;;;5036171;28;20265;-79
2021/05/08 01:23:52;;;;;;;10.93;9.43;;;3.20;99.90;;;;;;5036401;28;20236;-78
2021/05/08 01:26:18;;;;;;;12.43;9.57;;;3.20;99.90;;;;;;5038228;28;20192;-79
2021/05/08 01:28:45;;;;;;;12.43;9.50;;;3.20;99.90;;;;;;5054640;28;20274;-79
2021/05/08 01:31:12;;;;;;;12.23;10.10;;;3.20;99.90;;;;;;5037855;28;20643;-78
2021/05/08 01:33:39;;;;;;;12.20;9.60;;;3.30;99.90;;;;;;5052345;28;20192;-77
2021/05/08 01:36:05;;;;;;;11.00;9.47;;;3.30;99.90;;;;;;5035006;28;20178;-77
2021/05/08 01:38:32;;;;;;;10.87;9.53;;;3.20;99.90;;;;;;5056028;28;20246;-78
2021/05/08 01:41:05;;;;;;;12.07;9.93;;;3.20;99.90;;;;;;5037439;28;20270;-77
2021/05/08 01:43:31;;;;;;;10.77;9.27;;;3.10;99.90;;;;;;5033237;28;20203;-76
2021/05/08 01:45:56;;;;;;;10.77;9.37;;;3.00;99.90;;;;;;5050542;28;20694;-78
2021/05/08 01:48:22;;;;;;;11.73;9.67;;;3.00;99.90;;;;;;5033666;28;20203;-78
2021/05/08 01:50:47;;;;;;;12.13;9.83;;;3.00;99.90;;;;;;5033886;28;20182;-76
2021/05/08 01:53:13;;;;;;;14.93;10.07;;;3.00;99.90;;;;;;5049732;28;20723;-76
2021/05/08 01:55:40;;;;;;;11.07;9.63;;;2.90;99.90;;;;;;5050443;28;20604;-78
2021/05/08 01:58:05;;;;;;;13.90;10.07;;;3.00;99.90;;;;;;5032970;28;20192;-75
2021/05/08 02:00:33;;;;;;;12.80;10.30;;;2.90;99.90;;;;;;5050271;28;20178;-76
2021/05/08 02:02:59;;;;;;;12.37;10.23;;;2.90;99.90;;;;;;5048753;28;20218;-76
2021/05/08 02:05:29;;;;;;;16.93;10.53;;;2.90;99.90;;;;;;5049384;28;20173;-77
2021/05/08 02:07:55;;;;;;;10.90;9.67;;;3.00;99.90;;;;;;5048819;28;20205;-76
2021/05/08 02:10:21;;;;;;;10.90;9.47;;;2.90;99.90;;;;;;5032574;28;20193;-77
2021/05/08 02:12:47;;;;;;;12.13;10.00;;;2.80;99.90;;;;;;5032317;28;20254;-77
2021/05/08 02:15:14;;;;;;;12.30;10.27;;;2.70;99.90;;;;;;5049115;28;20189;-77
2021/05/08 02:17:39;;;;;;;10.67;9.13;;;2.70;99.90;;;;;;5048807;28;20179;-77
2021/05/08 02:20:28;;;;;;;13.27;10.23;;;2.70;99.90;;;;;;5048964;28;20185;-77
2021/05/08 02:22:55;;;;;;;12.27;9.87;;;2.70;99.90;;;;;;5046076;28;20206;-76
2021/05/08 02:25:21;;;;;;;12.77;10.17;;;2.80;99.90;;;;;;5032145;28;20181;-76
2021/05/08 02:27:46;;;;;;;13.27;10.10;;;2.80;99.90;;;;;;5049294;28;20231;-78
2021/05/08 02:30:19;;;;;;;12.33;9.90;;;2.80;99.90;;;;;;5050087;28;20567;-77
2021/05/08 02:32:45;;;;;;;11.13;9.40;;;2.80;99.90;;;;;;5033140;28;20212;-75
2021/05/08 02:35:12;;;;;;;12.37;9.90;;;2.70;99.90;;;;;;5032397;28;20175;-76
2021/05/08 02:37:37;;;;;;;12.57;10.07;;;2.70;99.90;;;;;;5048536;28;20646;-76
2021/05/08 02:40:07;;;;;;;12.67;10.27;;;2.70;99.90;;;;;;5047837;28;20183;-76
2021/05/08 02:42:33;;;;;;;13.10;10.00;;;2.60;99.90;;;;;;5048424;28;20610;-78
2021/05/08 02:44:59;;;;;;;11.50;9.70;;;2.50;99.90;;;;;;5048810;28;20193;-76
2021/05/08 02:47:25;;;;;;;12.77;9.93;;;2.50;99.90;;;;;;5031813;28;20175;-77
2021/05/08 02:49:51;;;;;;;16.00;10.67;;;2.50;99.90;;;;;;5031906;28;20184;-76
2021/05/08 02:52:17;;;;;;;10.83;9.27;;;2.50;99.90;;;;;;5048356;28;20205;-76
2021/05/08 02:54:43;;;;;;;11.10;9.87;;;2.50;99.90;;;;;;5031899;28;20279;-77
2021/05/08 02:57:08;;;;;;;14.70;10.63;;;2.50;99.90;;;;;;5048348;28;20167;-76
2021/05/08 02:59:34;;;;;;;15.17;11.33;;;2.60;99.90;;;;;;5048123;28;20184;-78
2021/05/08 03:02:01;;;;;;;12.13;10.10;;;2.60;99.90;;;;;;5049238;28;20558;-77
2021/05/08 03:04:28;;;;;;;12.43;10.27;;;2.60;99.90;;;;;;5048698;28;20258;-78
2021/05/08 03:06:53;;;;;;;13.10;10.20;;;2.50;99.90;;;;;;5049774;28;20181;-78
2021/05/08 03:09:19;;;;;;;14.33;11.20;;;2.40;99.90;;;;;;5051016;28;20202;-79
2021/05/08 03:11:45;;;;;;;12.70;9.97;;;2.30;99.90;;;;;;5050348;28;20172;-78
2021/05/08 03:14:13;;;;;;;14.17;10.70;;;2.30;99.90;;;;;;5033163;28;20285;-80
2021/05/08 03:16:42;;;;;;;14.67;10.90;;;2.30;99.90;;;;;;5049303;28;20732;-77
2021/05/08 03:19:08;;;;;;;13.83;10.63;;;2.20;99.90;;;;;;5034024;28;20177;-77
2021/05/08 03:21:35;;;;;;;11.93;10.00;;;2.30;99.90;;;;;;5050077;28;20213;-79
2021/05/08 03:24:01;;;;;;;14.37;10.63;;;2.30;99.90;;;;;;5049477;28;20293;-78
2021/05/08 03:26:28;;;;;;;13.47;10.33;;;2.30;99.90;;;;;;5049798;28;20179;-78
2021/05/08 03:28:53;;;;;;;13.00;10.63;;;2.40;99.90;;;;;;5032616;28;20199;-78
2021/05/08 03:31:21;;;;;;;12.90;10.93;;;2.30;99.90;;;;;;5049105;28;20190;-78
2021/05/08 03:33:46;;;;;;;13.33;11.27;;;2.30;99.90;;;;;;5049347;28;20198;-77
2021/05/08 03:36:13;;;;;;;12.83;10.00;;;2.30;99.90;;;;;;5049286;28;20183;-76
2021/05/08 03:38:39;;;;;;;13.07;10.13;;;2.30;99.90;;;;;;5015935;28;20181;-77
2021/05/08 03:41:05;;;;;;;14.53;11.43;;;2.30;99.90;;;;;;5032216;28;20184;-78
2021/05/08 03:43:31;;;;;;;14.83;11.23;;;2.30;99.90;;;;;;5050000;28;20617;-78
2021/05/08 03:45:57;;;;;;;14.37;10.80;;;2.30;99.90;;;;;;5051881;28;20189;-80
2021/05/08 03:48:23;;;;;;;14.20;10.47;;;2.20;99.90;;;;;;5033290;28;20201;-79
2021/05/08 03:50:49;;;;;;;15.03;11.60;;;2.20;99.90;;;;;;5034407;28;20671;-79
2021/05/08 03:53:16;;;;;;;14.63;10.30;;;2.20;99.90;;;;;;5055870;28;20197;-79
2021/05/08 03:55:42;;;;;;;13.33;10.77;;;2.20;99.90;;;;;;5057297;28;20179;-79
2021/05/08 03:58:07;;;;;;;12.23;10.30;;;2.10;99.90;;;;;;5057462;28;20539;-78
2021/05/08 04:00:34;;;;;;;14.33;11.27;;;2.10;99.90;;;;;;5057450;28;20189;-78
2021/05/08 04:02:59;;;;;;;14.20;10.23;;;2.20;99.90;;;;;;5079770;22;20540;-79
2021/05/08 04:05:25;;;;;;;14.40;10.50;;;2.20;99.90;;;;;;5020494;28;20182;-79
2021/05/08 04:07:51;;;;;;;17.13;12.20;;;2.20;99.90;;;;;;5036890;28;20215;-78
2021/05/08 04:10:17;;;;;;;14.53;11.37;;;2.20;99.90;;;;;;5037177;28;20166;-80
2021/05/08 04:12:43;;;;;;;14.67;11.57;;;2.20;99.90;;;;;;5012346;28;20197;-78
2021/05/08 04:15:08;;;;;;;16.67;12.00;;;2.20;99.90;;;;;;5012906;28;20234;-79
2021/05/08 04:17:34;;;;;;;18.73;12.27;;;2.20;99.90;;;;;;5011598;28;20182;-79
2021/05/08 04:19:59;;;;;;;17.40;12.37;;;2.30;99.90;;;;;;5015299;28;20200;-79
2021/05/08 04:22:25;;;;;;;15.83;11.97;;;2.40;99.90;;;;;;5008068;28;20192;-79
2021/05/08 04:24:50;;;;;;;15.63;12.03;;;2.50;99.90;;;;;;5000861;28;20206;-79
2021/05/08 04:27:16;;;;;;;16.77;12.43;;;2.60;99.90;;;;;;5017063;28;20191;-79
2021/05/08 04:29:42;;;;;;;16.83;13.40;;;2.70;99.90;;;;;;4984611;28;20212;-79
2021/05/08 04:32:07;;;;;;;17.00;12.50;;;2.80;99.90;;;;;;5017232;28;20646;-78
2021/05/08 04:34:33;;;;;;;18.03;12.47;;;3.00;99.90;;;;;;5000703;28;20720;-79
2021/05/08 04:36:58;;;;;;;18.00;13.50;;;3.20;99.90;;;;;;4984337;28;20548;-79
2021/05/08 04:39:25;;;;;;;18.20;13.53;;;3.30;99.90;;;;;;5017228;28;20594;-80
2021/05/08 04:41:51;;;;;;;18.63;13.27;;;3.30;99.90;;;;;;5000902;28;20188;-80
2021/05/08 04:44:16;;;;;;;15.77;13.10;;;3.40;99.90;;;;;;5000751;28;20284;-80
2021/05/08 04:46:42;;;;;;;18.27;13.80;;;3.60;99.90;;;;;;4984225;28;20185;-79
2021/05/08 04:49:07;;;;;;;16.87;13.00;;;3.80;99.90;;;;;;4984335;28;20217;-81
2021/05/08 04:51:33;;;;;;;20.23;14.10;;;3.90;99.90;;;;;;5000641;28;20185;-79
2021/05/08 04:53:58;;;;;;;17.53;13.30;;;3.90;99.90;;;;;;4984396;28;20201;-80
2021/05/08 04:56:24;;;;;;;16.53;13.07;;;4.00;99.90;;;;;;4984310;28;20553;-79
2021/05/08 04:58:50;;;;;;;16.83;13.13;;;4.00;99.90;;;;;;5000552;28;20236;-79
2021/05/08 05:01:15;;;;;;;19.13;14.90;;;4.00;99.90;;;;;;4984281;28;20251;-79
2021/05/08 05:03:41;;;;;;;19.60;15.37;;;4.10;99.90;;;;;;4998124;28;20292;-80
2021/05/08 05:06:06;;;;;;;18.03;14.13;;;4.10;99.90;;;;;;4997521;28;20242;-79
2021/05/08 05:08:32;;;;;;;19.63;13.83;;;4.20;99.90;;;;;;5013421;28;20736;-78
2021/05/08 05:10:58;;;;;;;20.63;14.10;;;4.40;99.90;;;;;;4997516;28;20276;-79
2021/05/08 05:13:23;;;;;;;18.30;14.30;;;4.50;99.90;;;;;;5013618;28;20237;-80
2021/05/08 05:15:50;;;;;;;16.10;13.10;;;4.70;99.90;;;;;;4997283;28;20186;-80
2021/05/08 05:18:15;;;;;;;16.90;13.00;;;4.80;99.90;;;;;;4997148;28;20185;-79
2021/05/08 05:20:42;;;;;;;18.97;14.00;;;4.80;99.90;;;;;;4981072;28;20180;-79
2021/05/08 05:23:08;;;;;;;18.60;13.33;;;4.90;99.90;;;;;;5013472;28;20214;-79
2021/05/08 05:25:34;;;;;;;16.43;13.33;;;5.00;99.90;;;;;;4997150;28;20188;-80
2021/05/08 05:27:59;;;;;;;19.37;14.63;;;5.10;99.90;;;;;;4980725;28;20577;-79
2021/05/08 05:30:25;;;;;;;19.53;13.20;;;5.10;99.90;;;;;;4996957;28;20193;-80
2021/05/08 05:32:50;;;;;;;18.40;13.60;;;5.20;99.90;;;;;;5013250;28;20188;-80
2021/05/08 05:35:16;;;;;;;18.63;13.77;;;5.30;99.90;;;;;;4996949;28;20648;-80
2021/05/08 05:37:41;;;;;;;18.80;14.20;;;5.30;99.90;;;;;;4996920;28;20186;-80
2021/05/08 05:40:08;;;;;;;18.73;13.37;;;5.50;99.90;;;;;;5013037;28;20190;-80
2021/05/08 05:42:33;;;;;;;19.27;14.00;;;5.60;99.90;;;;;;4996932;28;20272;-80
2021/05/08 05:44:59;;;;;;;17.33;13.10;;;5.60;99.90;;;;;;5012926;28;20207;-79
2021/05/08 05:47:28;;;;;;;15.67;13.10;;;5.60;99.90;;;;;;5012862;28;20191;-79
2021/05/08 05:49:53;;;;;;;19.10;13.17;;;5.60;99.90;;;;;;4997098;28;20178;-79
2021/05/08 05:52:19;;;;;;;15.87;13.67;;;5.70;99.90;;;;;;4980444;28;20190;-80
2021/05/08 05:54:46;;;;;;;17.23;13.43;;;5.60;99.90;;;;;;4996694;28;20202;-80
2021/05/08 05:57:11;;;;;;;17.67;13.00;;;6.40;99.90;;;;;;4996473;28;20538;-81
2021/05/08 05:59:37;;;;;;;15.73;12.87;;;7.20;99.90;;;;;;4996717;28;20172;-78
2021/05/08 06:02:04;;;;;;;15.57;11.67;;;7.80;99.90;;;;;;4996311;28;20220;-79
2021/05/08 06:04:29;;;;;;;16.20;11.83;;;8.10;99.90;;;;;;4996288;28;20244;-80
2021/05/08 06:06:55;;;;;;;14.70;11.60;;;8.10;99.90;;;;;;5012456;28;20259;-79
2021/05/08 06:09:20;;;;;;;15.63;11.90;;;8.10;99.90;;;;;;4996422;28;20214;-79
2021/05/08 06:11:46;;;;;;;16.83;11.70;;;7.90;99.90;;;;;;4996122;28;20178;-79
2021/05/08 06:14:11;;;;;;;15.37;12.20;;;7.60;99.90;;;;;;4996250;28;20256;-79
2021/05/08 06:16:37;;;;;;;14.10;12.07;;;7.60;99.90;;;;;;4995872;28;20171;-79
2021/05/08 06:19:02;;;;;;;14.83;11.57;;;7.80;99.90;;;;;;4996062;28;20217;-79
2021/05/08 06:21:28;;;;;;;12.77;10.97;;;8.30;99.90;;;;;;4996168;28;20226;-76
2021/05/08 06:23:53;;;;;;;12.87;11.20;;;8.50;99.90;;;;;;5007883;28;20224;-76
2021/05/08 06:26:19;;;;;;;12.47;11.17;;;8.70;99.90;;;;;;5012220;28;20183;-76
2021/05/08 06:28:44;;;;;;;13.00;10.43;;;9.00;99.90;;;;;;5010327;28;20214;-76
2021/05/08 06:31:10;;;;;;;13.63;9.97;;;9.30;99.90;;;;;;5012235;28;20210;-76
2021/05/08 06:33:36;;;;;;;11.80;9.93;;;9.20;99.90;;;;;;5012040;28;20203;-77
2021/05/08 06:36:01;;;;;;;11.60;9.83;;;8.90;99.90;;;;;;4995649;28;20178;-77
2021/05/08 06:38:27;;;;;;;12.83;9.43;;;9.00;99.90;;;;;;5011942;28;20187;-77
2021/05/08 06:40:52;;;;;;;12.43;9.67;;;9.00;99.90;;;;;;4995967;28;20180;-76
2021/05/08 06:43:18;;;;;;;13.43;10.20;;;9.10;99.90;;;;;;5011849;28;20725;-76
2021/05/08 06:45:43;;;;;;;13.00;9.73;;;9.50;99.90;;;;;;5011998;28;20804;-76
2021/05/08 06:48:09;;;;;;;12.87;9.33;;;9.60;99.90;;;;;;5011629;28;20686;-76
2021/05/08 06:50:35;;;;;;;12.87;9.17;;;10.00;99.90;;;;;;5011801;28;20182;-76
2021/05/08 06:53:01;;;;;;;11.73;9.30;;;10.50;99.90;;;;;;4995447;28;20256;-76
2021/05/08 06:55:26;;;;;;;15.40;10.03;;;10.30;99.90;;;;;;5011838;28;20171;-76
2021/05/08 06:57:53;;;;;;;12.10;9.30;;;10.70;99.90;;;;;;4995181;28;20182;-76
2021/05/08 07:00:19;;;;;;;11.13;8.80;;;11.00;99.90;;;;;;5011627;28;20187;-76
2021/05/08 07:02:44;;;;;;;11.23;9.27;;;11.00;99.90;;;;;;4995045;28;20180;-76
2021/05/08 07:05:10;;;;;;;12.17;9.27;;;11.00;99.90;;;;;;4995222;28;20183;-76
2021/05/08 07:07:36;;;;;;;10.60;9.00;;;10.90;99.90;;;;;;4978856;28;20272;-76
2021/05/08 07:10:03;;;;;;;13.10;9.10;;;10.90;99.90;;;;;;4979011;28;20556;-76
2021/05/08 07:12:28;;;;;;;11.17;8.90;;;10.90;99.90;;;;;;4995451;28;20167;-76
2021/05/08 07:14:54;;;;;;;12.83;9.77;;;11.00;99.90;;;;;;5011099;28;20266;-76
2021/05/08 07:17:19;;;;;;;13.13;9.40;;;11.20;99.90;;;;;;5011161;28;20183;-76
2021/05/08 07:19:45;;;;;;;12.03;9.10;;;11.50;99.90;;;;;;4994917;28;20185;-76
2021/05/08 07:22:10;;;;;;;11.90;9.03;;;11.50;99.90;;;;;;4994899;28;20205;-76
2021/05/08 07:24:36;;;;;;;10.70;8.60;;;11.60;99.90;;;;;;4994751;28;20266;-76
2021/05/08 07:27:01;;;;;;;11.73;9.17;;;11.70;99.90;;;;;;4994075;28;20200;-76
2021/05/08 07:29:27;;;;;;;10.43;8.53;;;11.70;99.90;;;;;;5028795;28;20258;-76
2021/05/08 07:31:52;;;;;;;11.93;9.23;;;11.90;99.90;;;;;;5014380;28;20185;-72
2021/05/08 07:34:18;;;;;;;11.67;9.30;;;11.80;99.90;;;;;;5024294;28;20252;-70
2021/05/08 07:36:44;;;;;;;10.93;9.10;;;11.90;99.90;;;;;;5026645;28;20187;-70
2021/05/08 07:39:09;;;;;;;11.63;9.27;;;11.80;99.90;;;;;;5012071;28;20180;-70
2021/05/08 07:41:35;;;;;;;11.40;9.20;;;11.70;99.90;;;;;;5012837;28;20681;-71
2021/05/08 07:44:00;;;;;;;12.20;9.53;;;11.90;99.90;;;;;;4999493;28;20291;-72
2021/05/08 07:46:26;;;;;;;14.43;10.17;;;12.30;99.90;;;;;;5010859;28;20181;-75
2021/05/08 07:48:51;;;;;;;14.23;10.03;;;12.40;99.90;;;;;;5010805;28;20212;-75
2021/05/08 07:51:17;;;;;;;11.37;9.40;;;12.60;99.90;;;;;;5011049;28;20549;-75
2021/05/08 07:53:43;;;;;;;14.53;9.73;;;12.40;99.90;;;;;;5013599;28;20208;-73
2021/05/08 07:56:08;;;;;;;16.03;10.37;;;12.30;99.90;;;;;;5010991;28;20649;-73
2021/05/08 07:58:34;;;;;;;13.50;10.43;;;12.40;99.90;;;;;;5009747;28;20629;-74
2021/05/08 08:00:59;;;;;;;14.60;10.17;;;12.50;99.90;;;;;;4995042;28;20248;-75
2021/05/08 08:03:25;;;;;;;12.80;9.93;;;12.40;99.90;;;;;;5024108;28;20230;-74
2021/05/08 08:05:50;;;;;;;15.80;11.27;;;12.50;99.90;;;;;;5014502;28;20197;-74
2021/05/08 08:08:16;;;;;;;12.17;10.00;;;12.60;99.90;;;;;;5014012;28;20298;-74
2021/05/08 08:10:41;;;;;;;14.13;9.63;;;12.40;99.90;;;;;;5014745;28;20214;-74
2021/05/08 08:13:07;;;;;;;11.70;9.70;;;12.50;99.90;;;;;;5010675;28;20604;-73
2021/05/08 08:15:32;;;;;;;11.40;9.70;;;12.70;99.90;;;;;;5026690;28;20565;-73
2021/05/08 08:17:58;;;;;;;13.20;10.70;;;12.90;99.90;;;;;;5023439;28;20268;-73
2021/05/08 08:20:23;;;;;;;13.27;10.30;;;12.90;99.90;;;;;;5014077;28;20659;-73
2021/05/08 08:22:49;;;;;;;13.23;9.53;;;12.70;99.90;;;;;;5030368;28;20221;-73
2021/05/08 08:25:15;;;;;;;13.43;10.27;;;13.00;99.90;;;;;;5013879;28;20574;-71
2021/05/08 08:27:40;;;;;;;11.37;9.07;;;13.00;99.90;;;;;;5013810;28;20185;-75
2021/05/08 08:30:08;;;;;;;13.20;9.77;;;13.10;99.90;;;;;;5013954;28;20295;-77
2021/05/08 08:32:33;;;;;;;10.20;8.47;;;13.20;99.90;;;;;;4983790;28;20214;-74
2021/05/08 08:34:59;;;;;;;10.53;7.17;;;13.20;99.90;;;;;;4991078;28;20176;-75
2021/05/08 08:37:24;;;;;;;11.43;7.00;;;13.10;99.90;;;;;;4974675;28;20184;-74
2021/05/08 08:39:50;;;;;;;8.77;7.27;;;13.10;99.90;;;;;;5009376;28;20230;-74
2021/05/08 08:42:15;;;;;;;9.20;7.03;;;13.40;99.90;;;;;;4994688;28;20191;-73
2021/05/08 08:44:41;;;;;;;9.67;7.97;;;13.60;99.90;;;;;;4994552;28;20199;-73
2021/05/08 08:47:28;;;;;;;8.83;6.90;;;13.60;99.90;;;;;;5010680;28;20266;-72
2021/05/08 08:49:53;;;;;;;10.27;7.30;;;13.80;99.90;;;;;;4981173;28;20266;-74
2021/05/08 08:52:19;;;;;;;9.93;7.43;;;13.80;99.90;;;;;;4978347;28;20262;-72
2021/05/08 08:54:44;;;;;;;10.00;7.27;;;14.00;99.90;;;;;;4995609;28;20240;-72
2021/05/08 08:57:12;;;;;;;9.63;7.00;;;14.10;99.90;;;;;;4994206;28;20176;-72
2021/05/08 08:59:37;;;;;;;10.63;7.10;;;14.20;99.90;;;;;;4994457;28;20188;-76
2021/05/08 09:02:03;;;;;;;11.87;7.50;;;14.20;99.90;;;;;;4994913;28;20563;-73
2021/05/08 09:04:28;;;;;;;9.37;5.63;;;14.20;99.90;;;;;;4994257;28;20258;-74
2021/05/08 09:06:54;;;;;;;7.97;5.50;;;14.30;99.90;;;;;;5008213;28;20187;-73
2021/05/08 09:09:20;;;;;;;7.87;5.40;;;14.20;99.90;;;;;;5046362;28;20205;-73
2021/05/08 09:11:53;;;;;;;8.30;5.57;;;14.20;99.90;;;;;;5011271;28;20186;-73
2021/05/08 09:14:23;;;;;;;8.73;6.33;;;14.30;99.90;;;;;;5030152;28;20194;-73
2021/05/08 09:17:11;;;;;;;7.47;5.93;;;14.30;99.90;;;;;;5024547;28;20175;-70
2021/05/08 09:19:40;;;;;;;8.60;5.33;;;14.50;99.90;;;;;;5006179;28;20525;-69
2021/05/08 09:22:32;;;;;;;7.83;5.13;;;14.70;99.90;;;;;;5027535;28;20187;-70
2021/05/08 09:25:02;;;;;;;8.43;4.47;;;14.70;99.90;;;;;;5013052;28;20290;-73
2021/05/08 09:27:40;;;;;;;6.80;4.97;;;14.80;99.90;;;;;;5024442;28;20179;-72
2021/05/08 09:30:30;;;;;;;9.60;4.93;;;14.90;99.90;;;;;;5017870;28;20195;-72
2021/05/08 09:32:56;;;;;;;6.23;4.50;;;14.90;99.90;;;;;;5013033;28;20675;-70
2021/05/08 09:35:29;;;;;;;6.20;4.30;;;14.90;99.90;;;;;;5014145;28;20176;-73
2021/05/08 09:38:14;;;;;;;8.63;4.30;;;15.00;99.90;;;;;;5012034;28;20267;-72
2021/05/08 09:40:44;;;;;;;7.83;4.70;;;15.30;99.90;;;;;;4993481;28;20181;-73
2021/05/08 09:43:14;;;;;;;5.47;4.13;;;15.20;99.90;;;;;;4993281;28;20192;-73
2021/05/08 09:45:40;;;;;;;7.17;4.13;;;15.00;99.90;;;;;;4982301;28;20172;-72
2021/05/08 09:48:30;;;;;;;5.83;3.90;;;15.00;99.90;;;;;;4993008;28;20262;-73
2021/05/08 09:51:15;;;;;;;5.67;3.53;;;15.30;99.90;;;;;;5008879;28;20572;-73
2021/05/08 09:53:41;;;;;;;4.87;3.60;;;15.40;99.90;;;;;;4994466;28;20188;-73
2021/05/08 09:56:07;;;;;;;5.77;3.50;;;15.30;99.50;;;;;;4996758;28;20234;-73
2021/05/08 09:58:33;;;;;;;4.97;3.70;;;15.40;99.90;;;;;;5012390;28;20186;-70
2021/05/08 10:00:59;;;;;;;6.03;3.53;;;15.50;99.50;;;;;;5029010;28;20176;-75
2021/05/08 10:03:24;;;;;;;5.20;3.30;;;15.80;98.40;;;;;;4980175;28;20226;-72
2021/05/08 10:06:02;;;;;;;5.73;3.20;;;16.10;97.40;;;;;;5029947;28;20187;-74
2021/05/08 10:08:28;;;;;;;6.90;3.13;;;16.30;97.50;;;;;;5014644;28;20250;-74
2021/05/08 10:10:54;;;;;;;7.20;3.13;;;16.60;96.60;;;;;;5013546;28;20549;-73
2021/05/08 10:13:20;;;;;;;6.70;3.07;;;16.70;96.90;;;;;;5013461;28;20191;-72
2021/05/08 10:15:45;;;;;;;4.97;2.47;;;16.70;94.90;;;;;;5013194;28;20175;-74
2021/05/08 10:18:11;;;;;;;4.77;3.17;;;16.80;94.90;;;;;;5011444;28;20211;-71
2021/05/08 10:20:41;;;;;;;5.63;2.80;;;16.80;93.30;;;;;;5010298;28;20187;-72
2021/05/08 10:23:14;;;;;;;5.30;3.07;;;16.50;92.80;;;;;;5010131;28;20227;-77
2021/05/08 10:25:41;;;;;;;4.93;2.30;;;16.20;92.40;;;;;;5007831;28;20269;-74
2021/05/08 10:28:06;;;;;;;9.30;3.03;;;16.10;94.10;;;;;;4996418;28;20203;-76
2021/05/08 10:30:40;;;;;;;5.23;2.50;;;16.30;94.00;;;;;;4996057;28;20180;-78
2021/05/08 10:33:09;;;;;;;6.77;2.17;;;16.40;92.40;;;;;;4994863;28;20219;-76
2021/05/08 10:35:41;;;;;;;6.87;2.63;;;16.40;91.60;;;;;;4987992;28;20169;-74
2021/05/08 10:38:19;;;;;;;6.10;2.40;;;16.40;91.60;;;;;;4990653;28;20184;-74
2021/05/08 10:40:53;;;;;;;4.33;2.43;;;16.20;92.20;;;;;;5025243;28;20179;-74
2021/05/08 10:43:48;;;;;;;4.40;2.50;;;16.40;91.20;;;;;;5012137;28;20563;-74
2021/05/08 10:46:15;;;;;;;4.47;2.40;;;16.60;93.40;;;;;;5010172;28;20175;-74
2021/05/08 10:49:09;;;;;;;5.73;2.40;;;16.70;91.00;;;;;;5011198;28;20282;-74
2021/05/08 10:51:52;;;;;;;4.67;2.40;;;16.60;90.30;;;;;;5011066;28;20178;-75
2021/05/08 10:54:42;;;;;;;3.73;2.23;;;16.60;89.90;;;;;;5005903;28;20223;-73
2021/05/08 10:57:20;;;;;;;4.23;2.20;;;16.60;91.10;;;;;;5013599;28;20704;-78
2021/05/08 11:00:04;;;;;;;6.37;2.43;;;16.50;87.90;;;;;;4995875;28;20179;-73
2021/05/08 11:02:43;;;;;;;4.23;2.20;;;16.40;91.30;;;;;;5011660;28;20191;-75
2021/05/08 11:05:25;;;;;;;2.83;2.00;;;16.50;92.00;;;;;;5025835;28;20195;-73
2021/05/08 11:07:51;;;;;;;3.27;2.00;;;16.50;89.00;;;;;;5019405;28;20212;-73
2021/05/08 11:10:32;;;;;;;3.67;2.13;;;16.50;88.20;;;;;;5008434;28;20241;-72
2021/05/08 11:13:17;;;;;;;4.00;2.30;;;16.70;90.20;;;;;;5009254;28;20249;-72
2021/05/08 11:15:52;;;;;;;4.07;2.17;;;16.50;87.00;;;;;;5010274;28;20180;-73
2021/05/08 11:21:07;;;;;;;4.67;2.27;;;16.30;83.20;;;;;;5008031;28;20219;-72
2021/05/08 11:23:52;;;;;;;2.80;1.90;;;16.30;83.60;;;;;;5008532;28;20211;-73
2021/05/08 11:26:21;;;;;;;2.67;2.00;;;16.40;86.40;;;;;;5009655;28;20175;-74
2021/05/08 11:29:22;;;;;;;5.20;2.20;;;16.60;84.40;;;;;;5012068;28;20204;-74
2021/05/08 11:31:50;;;;;;;4.63;2.33;;;16.60;81.90;;;;;;5013069;28;20182;-74
2021/05/08 11:34:22;;;;;;;3.73;2.30;;;16.30;80.20;;;;;;5029150;28;20290;-75
2021/05/08 11:36:57;;;;;;;4.57;2.07;;;16.30;82.80;;;;;;5014819;28;20186;-76
2021/05/08 11:39:39;;;;;;;3.40;1.90;;;16.20;82.60;;;;;;5030707;28;20205;-74
2021/05/08 11:42:10;;;;;;;4.10;2.00;;;16.10;81.80;;;;;;5032378;28;20174;-75
2021/05/08 11:44:37;;;;;;;3.47;1.93;;;16.00;80.90;;;;;;5014361;28;20297;-75
2021/05/08 11:47:29;;;;;;;4.33;1.83;;;16.00;82.80;;;;;;4998347;28;20182;-74
2021/05/08 11:50:05;;;;;;;4.43;2.03;;;16.20;82.10;;;;;;5017437;28;20214;-75
2021/05/08 11:52:35;;;;;;;3.43;2.00;;;16.20;84.00;;;;;;5025104;28;20213;-73
2021/05/08 11:55:02;;;;;;;4.83;2.13;;;16.30;84.30;;;;;;5010900;28;20195;-75
2021/05/08 11:57:28;;;;;;;3.53;2.17;;;16.30;85.10;;;;;;5004130;28;20184;-74
2021/05/08 11:59:53;;;;;;;4.43;2.30;;;16.10;86.20;;;;;;5028124;28;20194;-77
2021/05/08 12:02:23;;;;;;;3.83;2.10;;;16.10;83.60;;;;;;5013507;28;20667;-76
2021/05/08 12:04:56;;;;;;;3.97;1.90;;;16.30;86.60;;;;;;5011959;28;20693;-75
2021/05/08 12:07:26;;;;;;;5.07;2.10;;;16.50;85.80;;;;;;4994535;28;20661;-76
2021/05/08 12:09:52;;;;;;;2.40;1.70;;;16.60;84.50;;;;;;4994698;28;20715;-76
2021/05/08 12:12:18;;;;;;;3.47;1.90;;;16.60;82.60;;;;;;5010935;28;20169;-76
2021/05/08 12:14:45;;;;;;;3.00;2.20;;;16.70;83.20;;;;;;4998050;28;20269;-76
2021/05/08 12:17:11;;;;;;;2.60;2.00;;;16.50;83.40;;;;;;5030384;28;20233;-76
2021/05/08 12:19:38;;;;;;;3.53;1.93;;;16.50;84.20;;;;;;4997043;28;20179;-76
2021/05/08 12:22:03;;;;;;;4.60;2.00;;;16.40;86.40;;;;;;4990080;28;20183;-76
2021/05/08 12:24:29;;;;;;;3.27;1.97;;;16.60;83.70;;;;;;4998096;28;20212;-76
2021/05/08 12:26:55;;;;;;;4.97;2.13;;;16.70;83.40;;;;;;4997879;28;20188;-76
2021/05/08 12:29:20;;;;;;;3.70;2.20;;;16.70;83.70;;;;;;5000615;28;20262;-76
2021/05/08 12:31:46;;;;;;;2.90;1.70;;;16.60;83.10;;;;;;5013090;28;20208;-75
2021/05/08 12:34:13;;;;;;;3.33;2.27;;;16.50;84.20;;;;;;4986048;28;20204;-75
2021/05/08 12:36:57;;;;;;;3.07;1.90;;;16.50;84.20;;;;;;5027503;28;20182;-75
2021/05/08 12:39:23;;;;;;;3.97;2.23;;;16.50;85.40;;;;;;4996706;28;20229;-72
2021/05/08 12:42:18;;;;;;;4.27;1.90;;;16.60;85.60;;;;;;5011351;28;20180;-72
2021/05/08 12:44:45;;;;;;;4.33;1.90;;;16.70;85.10;;;;;;4978005;28;20684;-73
2021/05/08 12:47:21;;;;;;;4.07;1.90;;;16.70;83.10;;;;;;5021692;28;20183;-74